Time;durP1;ratioP1;P1;durP2;ratioP2;P2;SDS_P1;SDS_P2;PMS_P1;PMS_P2;Temp;Humidity;BMP_temperature;BMP_pressure;BME280_temperature;BME280_humidity;BME280_pressure;Samples;Min_cycle;Max_cycle;Signal;HPM_P1;HPM_P2
2023/11/06 15:13:06;;;;;;;0.85;0.50;;;;;;;15.86;46.82;94273.97;6199622;23;20033;-88
2023/11/06 15:15:34;;;;;;;1.15;0.60;;;;;;;15.91;45.87;94268.78;6128286;23;20072;-90
2023/11/06 15:18:00;;;;;;;1.15;0.60;;;;;;;15.94;45.85;94251.81;6154395;23;20009;-90
2023/11/06 15:20:26;;;;;;;1.13;0.50;;;;;;;16.10;45.01;94255.50;6106263;23;20005;-89
2023/11/06 15:25:18;;;;;;;2.27;0.60;;;;;;;15.81;46.26;94258.91;6176895;23;20021;-89
2023/11/06 15:27:44;;;;;;;1.25;0.60;;;;;;;15.76;46.83;94268.50;6134873;23;20270;-89
2023/11/06 15:30:12;;;;;;;3.00;0.60;;;;;;;15.79;45.89;94273.28;6158954;23;20005;-89
2023/11/06 15:35:07;;;;;;;1.33;0.60;;;;;;;15.11;47.34;94265.06;6160737;23;20114;-89
2023/11/06 15:37:36;;;;;;;1.48;0.57;;;;;;;15.22;46.67;94268.69;6129156;23;20013;-89
2023/11/06 15:40:06;;;;;;;0.98;0.60;;;;;;;15.30;47.55;94275.41;6129258;23;20049;-88
2023/11/06 15:42:32;;;;;;;1.90;0.77;;;;;;;15.19;48.65;94277.81;6153822;23;20012;-88
2023/11/06 15:45:00;;;;;;;4.20;0.90;;;;;;;15.18;48.18;94260.50;6153842;23;19998;-89
2023/11/06 15:47:26;;;;;;;3.00;0.90;;;;;;;15.23;48.27;94276.34;6105737;23;20033;-88
2023/11/06 15:49:55;;;;;;;1.15;0.50;;;;;;;15.24;47.16;94279.75;6154213;23;20072;-89
2023/11/06 15:52:22;;;;;;;2.72;0.60;;;;;;;15.08;47.58;94291.72;6105345;23;20017;-89
2023/11/06 15:54:48;;;;;;;1.98;0.60;;;;;;;14.80;48.44;94293.19;6153255;23;20104;-90
2023/11/06 15:57:14;;;;;;;1.45;0.70;;;;;;;14.83;48.52;94291.91;6153472;23;20076;-88
2023/11/06 16:02:05;;;;;;;5.10;0.70;;;;;;;14.79;48.41;94288.97;6205949;23;20032;-89
2023/11/06 16:04:31;;;;;;;3.00;0.70;;;;;;;14.73;48.10;94289.06;6135573;23;20013;-89
2023/11/06 16:06:56;;;;;;;2.85;0.80;;;;;;;14.53;49.03;94292.78;6159464;23;20009;-89
2023/11/06 16:09:22;;;;;;;1.77;0.80;;;;;;;14.44;49.07;94284.44;6159090;23;20005;-91
2023/11/06 16:11:48;;;;;;;1.67;1.50;;;;;;;14.55;48.48;94309.03;6135062;23;20017;-89
2023/11/06 16:16:39;;;;;;;1.83;1.20;;;;;;;14.54;48.36;94311.88;6188109;23;20024;-89
2023/11/06 16:19:06;;;;;;;2.63;0.98;;;;;;;14.30;48.90;94317.06;6156451;23;20015;-88
2023/11/06 16:21:37;;;;;;;2.30;1.00;;;;;;;14.50;48.54;94310.72;6132176;23;20035;-90
2023/11/06 16:24:06;;;;;;;2.13;1.20;;;;;;;14.50;48.53;94324.59;6135580;23;20071;-89
2023/11/06 16:26:37;;;;;;;1.52;1.00;;;;;;;14.50;49.11;94329.06;6159512;23;20005;-90
2023/11/06 16:29:06;;;;;;;2.60;1.55;;;;;;;14.34;50.71;94338.34;6135040;23;20016;-90
2023/11/06 16:47:06;;;;;;;2.60;2.10;;;;;;;13.98;51.82;94369.53;6184546;23;20025;-90
2023/11/06 16:54:42;;;;;;;2.17;1.30;;;;;;;13.89;51.30;94353.34;6159203;23;20022;-89
2023/11/06 16:57:10;;;;;;;2.63;1.73;;;;;;;13.86;51.76;94364.25;6130648;23;20015;-89
2023/11/06 16:59:36;;;;;;;3.70;1.95;;;;;;;13.72;51.74;94365.41;6129499;23;20016;-90
2023/11/06 17:02:03;;;;;;;3.80;1.80;;;;;;;13.59;52.80;94376.78;6129190;23;20045;-91
2023/11/06 17:04:30;;;;;;;3.67;1.70;;;;;;;13.74;52.43;94386.09;6105568;23;20049;-90
2023/11/06 17:06:56;;;;;;;2.88;1.65;;;;;;;13.73;52.56;94400.19;6129385;23;20013;-90
2023/11/06 17:09:21;;;;;;;7.13;1.92;;;;;;;13.66;52.77;94387.19;6104625;23;20081;-89
2023/11/06 17:11:48;;;;;;;3.72;2.20;;;;;;;13.70;52.56;94396.19;6129097;23;20024;-90
2023/11/06 17:14:14;;;;;;;3.67;2.30;;;;;;;13.53;52.97;94380.28;6129050;23;20017;-90
2023/11/06 18:20:04;;;;;;;1.10;1.00;;;;;;;13.09;58.83;94581.25;6187294;23;20029;-88
2023/11/06 18:22:30;;;;;;;0.80;0.80;;;;;;;13.11;58.94;94596.72;6157503;23;20029;-89
2023/11/06 18:24:55;;;;;;;1.15;0.80;;;;;;;12.85;58.92;94608.88;6157745;23;20024;-88
2023/11/06 18:27:21;;;;;;;1.95;0.65;;;;;;;12.74;59.20;94601.69;6108682;23;20009;-87
2023/11/06 18:29:52;;;;;;;1.03;0.70;;;;;;;12.41;60.18;94625.25;6157681;23;20088;-89
2023/11/06 18:34:47;;;;;;;0.50;0.50;;;;;;;12.25;59.91;94644.72;6153589;23;20017;-88
2023/11/06 18:37:14;;;;;;;0.40;0.40;;;;;;;11.88;61.37;94649.50;6152883;23;20009;-89
2023/11/06 18:39:40;;;;;;;0.50;0.50;;;;;;;11.92;60.51;94645.53;6154142;23;20010;-89
2023/11/06 18:42:09;;;;;;;0.82;0.50;;;;;;;11.76;61.48;94662.31;6105123;23;20014;-88
2023/11/06 18:44:35;;;;;;;1.42;0.55;;;;;;;11.78;60.63;94655.09;6129896;23;20010;-88
2023/11/06 18:49:26;;;;;;;0.43;0.40;;;;;;;11.78;61.22;94680.34;6190854;23;20090;-88
2023/11/06 18:51:55;;;;;;;0.68;0.50;;;;;;;11.76;60.92;94682.34;6135791;23;20016;-88
2023/11/06 18:54:22;;;;;;;0.82;0.35;;;;;;;12.00;58.85;94689.66;6159411;23;20021;-88
2023/11/06 18:56:48;;;;;;;0.47;0.40;;;;;;;11.78;59.41;94673.34;6159700;23;20016;-88
2023/11/06 18:59:13;;;;;;;0.30;0.30;;;;;;;11.52;60.17;94692.34;6159204;23;20009;-88
2023/11/06 19:04:05;;;;;;;1.38;0.30;;;;;;;11.26;61.03;94703.44;6201058;23;20031;-88
2023/11/06 19:06:32;;;;;;;0.30;0.30;;;;;;;11.46;60.80;94712.16;6135852;23;20012;-88
2023/11/06 19:08:58;;;;;;;0.40;0.30;;;;;;;11.43;60.67;94719.53;6159889;23;20005;-88
2023/11/06 19:11:24;;;;;;;0.30;0.30;;;;;;;11.39;60.14;94707.91;6160239;23;20020;-88
2023/11/06 19:13:49;;;;;;;0.38;0.30;;;;;;;11.39;60.08;94724.34;6134193;23;20072;-89
2023/11/06 19:21:17;;;;;;;0.43;0.40;;;;;;;11.31;60.06;94714.09;6185030;23;20024;-88
2023/11/06 19:23:43;;;;;;;0.95;0.40;;;;;;;11.16;60.89;94716.81;6160079;23;20013;-88
2023/11/06 19:38:55;;;;;;;0.80;0.45;;;;;;;10.46;61.96;94713.41;6187464;23;20009;-88
2023/11/06 19:41:20;;;;;;;0.40;0.30;;;;;;;10.47;62.30;94726.22;6159515;23;20045;-89
2023/11/06 19:43:46;;;;;;;0.43;0.43;;;;;;;10.44;62.71;94713.59;6160176;23;20009;-88
2023/11/06 19:46:13;;;;;;;0.45;0.40;;;;;;;10.15;63.52;94717.94;6159275;23;20001;-88
2023/11/06 19:48:42;;;;;;;1.15;0.40;;;;;;;10.08;63.86;94717.06;6159993;23;20024;-88
2023/11/06 19:51:07;;;;;;;1.63;0.52;;;;;;;10.25;63.48;94698.63;6158845;23;20008;-89
2023/11/06 19:53:34;;;;;;;0.35;0.32;;;;;;;9.75;63.32;94695.97;6159669;23;20009;-88
2023/11/06 19:56:03;;;;;;;0.70;0.40;;;;;;;9.80;64.41;94701.41;6135394;23;20009;-88
2023/11/06 19:58:30;;;;;;;0.52;0.40;;;;;;;9.91;64.04;94713.09;6134708;23;20013;-89
2023/11/06 20:00:56;;;;;;;0.70;0.50;;;;;;;10.15;63.24;94707.53;6159493;23;20080;-89
2023/11/06 20:03:21;;;;;;;0.55;0.52;;;;;;;10.20;62.60;94703.56;6135102;23;20028;-89
2023/11/06 20:05:47;;;;;;;0.43;0.40;;;;;;;10.50;61.02;94699.03;6134675;23;20036;-89
2023/11/06 20:08:16;;;;;;;0.30;0.30;;;;;;;10.24;62.46;94705.59;6134708;23;20009;-88
2023/11/06 20:10:43;;;;;;;0.30;0.30;;;;;;;9.96;62.20;94708.16;6134856;23;20088;-89
2023/11/06 20:13:10;;;;;;;0.55;0.30;;;;;;;10.07;61.38;94709.44;6160031;23;20084;-87
2023/11/06 20:15:35;;;;;;;0.98;0.30;;;;;;;10.15;61.46;94710.13;6159628;23;20011;-89
2023/11/06 20:50:47;;;;;;;0.30;0.30;;;;;;;10.72;59.49;94718.00;6207525;23;20033;-89
2023/11/06 20:53:13;;;;;;;78.18;32.63;;;;;;;10.75;61.01;94728.00;6129251;23;20022;-88
2023/11/06 21:00:50;;;;;;;21.13;10.70;;;;;;;10.62;61.62;94722.72;6157425;23;20076;-89
2023/11/06 21:03:16;;;;;;;5.70;3.25;;;;;;;10.60;62.24;94709.88;6105376;23;20016;-89
2023/11/06 21:05:45;;;;;;;3.47;2.10;;;;;;;10.78;61.00;94714.63;6105117;23;20009;-89
2023/11/06 21:08:18;;;;;;;2.97;1.20;;;;;;;10.89;60.32;94718.47;6104432;23;20107;-88
2023/11/06 21:29:26;;;;;;;6.32;2.85;;;;;;;10.57;61.49;94731.88;6181278;23;20025;-89
2023/11/06 21:31:52;;;;;;;2.65;0.70;;;;;;;10.87;59.99;94728.25;6163627;23;20021;-88
2023/11/06 21:34:18;;;;;;;0.88;0.50;;;;;;;11.05;59.89;94744.19;6128663;23;20017;-89
2023/11/06 21:36:47;;;;;;;1.58;0.90;;;;;;;11.06;60.44;94735.41;6128362;23;20005;-89
2023/11/06 21:39:13;;;;;;;1.13;0.80;;;;;;;10.83;59.79;94742.66;6128250;23;20013;-89
2023/11/06 21:41:41;;;;;;;1.00;0.80;;;;;;;10.99;60.22;94744.97;6128284;23;20089;-88
2023/11/06 21:44:06;;;;;;;0.85;0.55;;;;;;;10.88;60.03;94742.88;6153155;23;20012;-89
2023/11/06 22:23:23;;;;;;;0.73;0.50;;;;;;;10.90;59.33;94743.50;6162018;23;20017;-88
2023/11/06 22:25:48;;;;;;;0.45;0.20;;;;;;;10.57;58.15;94731.88;6155867;23;20080;-89
2023/11/06 22:28:14;;;;;;;0.60;0.32;;;;;;;10.75;58.03;94728.78;6158891;23;20009;-88
2023/11/06 22:30:39;;;;;;;0.43;0.20;;;;;;;10.87;57.89;94736.06;6158188;23;20001;-89
2023/11/06 22:35:30;;;;;;;0.45;0.30;;;;;;;10.80;57.73;94717.84;6111486;23;20076;-88
2023/11/06 22:37:55;;;;;;;0.20;0.20;;;;;;;10.90;58.24;94733.88;6075294;23;20010;-88
2023/11/06 22:40:21;;;;;;;0.30;0.30;;;;;;;10.92;58.47;94734.50;6099693;23;20002;-88
2023/11/06 22:42:47;;;;;;;0.20;0.20;;;;;;;10.92;57.99;94731.91;6076132;23;20010;-89
2023/11/06 22:45:12;;;;;;;0.85;0.30;;;;;;;10.96;58.72;94729.72;6075854;23;20014;-88
2023/11/06 22:58:32;;;;;;;1.17;0.30;;;;;;;10.83;57.59;94730.44;6163135;23;20104;-89
2023/11/06 23:00:58;;;;;;;0.68;0.20;;;;;;;11.11;57.29;94716.59;6153563;23;20022;-88
2023/11/06 23:03:24;;;;;;;0.20;0.20;;;;;;;11.11;57.18;94709.56;6128702;23;20144;-89
2023/11/06 23:05:52;;;;;;;0.75;0.32;;;;;;;10.95;58.33;94717.72;6153668;23;20002;-89
2023/11/06 23:08:19;;;;;;;0.77;0.30;;;;;;;11.17;58.65;94712.41;6129218;23;20005;-89
2023/11/06 23:10:44;;;;;;;1.60;0.38;;;;;;;11.18;58.69;94711.44;6151656;23;20009;-89
2023/11/06 23:13:10;;;;;;;0.20;0.20;;;;;;;10.91;59.53;94708.69;6152127;23;20015;-90
2023/11/06 23:23:24;;;;;;;0.50;0.30;;;;;;;10.55;60.32;94700.06;6152141;23;20010;-88
2023/11/06 23:48:58;;;;;;;2.47;0.40;;;;;;;10.44;59.84;94700.59;6187039;23;20030;-87
2023/11/06 23:51:23;;;;;;;0.43;0.30;;;;;;;10.50;59.95;94702.41;6106816;23;20013;-89
2023/11/06 23:53:48;;;;;;;1.23;0.40;;;;;;;10.28;60.66;94703.41;6130462;23;20061;-89
2023/11/06 23:56:14;;;;;;;0.50;0.47;;;;;;;10.62;59.96;94720.91;6130412;23;20014;-88
2023/11/06 23:58:40;;;;;;;0.93;0.40;;;;;;;10.15;60.27;94715.31;6130344;23;20009;-88
